sensor_id;sensor_type;location;lat;lon;timestamp;P1;durP1;ratioP1;P2;durP2;ratioP2
45039;SDS011;30778;53.574;7.770;2024-01-30T00:01:50;21.02;;;11.25;;
45039;SDS011;30778;53.574;7.770;2024-01-30T00:04:16;18.13;;;9.98;;
45039;SDS011;30778;53.574;7.770;2024-01-30T00:06:42;15.88;;;9.23;;
45039;SDS011;30778;53.574;7.770;2024-01-30T00:09:09;18.58;;;10.82;;
45039;SDS011;30778;53.574;7.770;2024-01-30T00:11:36;24.75;;;11.10;;
45039;SDS011;30778;53.574;7.770;2024-01-30T00:14:01;19.25;;;9.93;;
45039;SDS011;30778;53.574;7.770;2024-01-30T00:16:28;20.05;;;11.90;;
45039;SDS011;30778;53.574;7.770;2024-01-30T00:18:53;19.95;;;11.60;;
45039;SDS011;30778;53.574;7.770;2024-01-30T00:21:20;21.13;;;11.63;;
45039;SDS011;30778;53.574;7.770;2024-01-30T00:23:46;20.75;;;11.23;;
45039;SDS011;30778;53.574;7.770;2024-01-30T00:26:13;17.80;;;10.55;;
45039;SDS011;30778;53.574;7.770;2024-01-30T00:28:40;17.25;;;10.77;;
45039;SDS011;30778;53.574;7.770;2024-01-30T00:31:06;18.63;;;11.02;;
45039;SDS011;30778;53.574;7.770;2024-01-30T00:33:32;17.73;;;9.80;;
45039;SDS011;30778;53.574;7.770;2024-01-30T00:35:58;24.05;;;12.00;;
45039;SDS011;30778;53.574;7.770;2024-01-30T00:38:23;17.52;;;10.68;;
45039;SDS011;30778;53.574;7.770;2024-01-30T00:40:49;18.02;;;11.13;;
45039;SDS011;30778;53.574;7.770;2024-01-30T00:43:15;20.45;;;11.77;;
45039;SDS011;30778;53.574;7.770;2024-01-30T00:45:40;18.55;;;11.88;;
45039;SDS011;30778;53.574;7.770;2024-01-30T00:48:06;15.85;;;10.95;;
45039;SDS011;30778;53.574;7.770;2024-01-30T00:50:32;17.70;;;11.65;;
45039;SDS011;30778;53.574;7.770;2024-01-30T00:52:58;16.15;;;10.75;;
45039;SDS011;30778;53.574;7.770;2024-01-30T00:55:23;21.20;;;11.55;;
45039;SDS011;30778;53.574;7.770;2024-01-30T00:57:49;16.85;;;9.60;;
45039;SDS011;30778;53.574;7.770;2024-01-30T01:00:15;22.15;;;11.07;;
45039;SDS011;30778;53.574;7.770;2024-01-30T01:02:42;19.40;;;10.02;;
45039;SDS011;30778;53.574;7.770;2024-01-30T01:05:08;18.75;;;10.60;;
45039;SDS011;30778;53.574;7.770;2024-01-30T01:07:33;15.70;;;10.88;;
45039;SDS011;30778;53.574;7.770;2024-01-30T01:09:59;18.48;;;10.85;;
45039;SDS011;30778;53.574;7.770;2024-01-30T01:12:24;17.63;;;10.35;;
45039;SDS011;30778;53.574;7.770;2024-01-30T01:14:50;19.67;;;10.73;;
45039;SDS011;30778;53.574;7.770;2024-01-30T01:17:15;20.85;;;11.18;;
45039;SDS011;30778;53.574;7.770;2024-01-30T01:19:41;20.58;;;11.48;;
45039;SDS011;30778;53.574;7.770;2024-01-30T01:22:06;20.73;;;11.35;;
45039;SDS011;30778;53.574;7.770;2024-01-30T01:24:32;20.95;;;11.52;;
45039;SDS011;30778;53.574;7.770;2024-01-30T01:26:58;17.52;;;10.45;;
45039;SDS011;30778;53.574;7.770;2024-01-30T01:29:24;18.25;;;10.70;;
45039;SDS011;30778;53.574;7.770;2024-01-30T01:31:55;16.95;;;11.02;;
45039;SDS011;30778;53.574;7.770;2024-01-30T01:34:21;18.42;;;11.02;;
45039;SDS011;30778;53.574;7.770;2024-01-30T01:36:46;21.70;;;11.95;;
45039;SDS011;30778;53.574;7.770;2024-01-30T01:39:12;23.13;;;11.55;;
45039;SDS011;30778;53.574;7.770;2024-01-30T01:41:40;16.02;;;10.05;;
45039;SDS011;30778;53.574;7.770;2024-01-30T01:44:09;15.48;;;10.63;;
45039;SDS011;30778;53.574;7.770;2024-01-30T01:46:35;18.48;;;11.10;;
45039;SDS011;30778;53.574;7.770;2024-01-30T01:49:05;20.13;;;11.68;;
45039;SDS011;30778;53.574;7.770;2024-01-30T01:51:35;21.92;;;11.98;;
45039;SDS011;30778;53.574;7.770;2024-01-30T01:56:32;16.63;;;9.75;;
45039;SDS011;30778;53.574;7.770;2024-01-30T01:59:11;18.38;;;10.32;;
45039;SDS011;30778;53.574;7.770;2024-01-30T02:01:37;24.45;;;11.90;;
45039;SDS011;30778;53.574;7.770;2024-01-30T02:04:04;18.73;;;12.02;;
45039;SDS011;30778;53.574;7.770;2024-01-30T02:06:32;17.95;;;11.98;;
45039;SDS011;30778;53.574;7.770;2024-01-30T02:09:04;24.15;;;12.65;;
45039;SDS011;30778;53.574;7.770;2024-01-30T02:11:29;17.73;;;11.10;;
45039;SDS011;30778;53.574;7.770;2024-01-30T02:14:04;18.83;;;10.00;;
45039;SDS011;30778;53.574;7.770;2024-01-30T02:16:30;18.85;;;11.73;;
45039;SDS011;30778;53.574;7.770;2024-01-30T02:18:56;20.42;;;11.18;;
45039;SDS011;30778;53.574;7.770;2024-01-30T02:21:22;19.73;;;11.02;;
45039;SDS011;30778;53.574;7.770;2024-01-30T02:23:52;22.67;;;12.23;;
45039;SDS011;30778;53.574;7.770;2024-01-30T02:26:24;19.27;;;12.55;;
45039;SDS011;30778;53.574;7.770;2024-01-30T02:28:52;18.33;;;12.25;;
45039;SDS011;30778;53.574;7.770;2024-01-30T02:31:20;21.48;;;11.43;;
45039;SDS011;30778;53.574;7.770;2024-01-30T02:33:45;20.50;;;11.27;;
45039;SDS011;30778;53.574;7.770;2024-01-30T02:36:15;18.13;;;11.40;;
45039;SDS011;30778;53.574;7.770;2024-01-30T02:38:41;20.67;;;11.30;;
45039;SDS011;30778;53.574;7.770;2024-01-30T02:41:06;18.75;;;10.98;;
45039;SDS011;30778;53.574;7.770;2024-01-30T02:43:32;15.43;;;10.98;;
45039;SDS011;30778;53.574;7.770;2024-01-30T02:46:02;20.77;;;10.68;;
45039;SDS011;30778;53.574;7.770;2024-01-30T02:48:27;26.63;;;10.82;;
45039;SDS011;30778;53.574;7.770;2024-01-30T02:50:55;19.98;;;11.43;;
45039;SDS011;30778;53.574;7.770;2024-01-30T02:53:23;19.65;;;11.15;;
45039;SDS011;30778;53.574;7.770;2024-01-30T02:55:48;17.05;;;10.18;;
45039;SDS011;30778;53.574;7.770;2024-01-30T02:58:14;22.08;;;11.27;;
45039;SDS011;30778;53.574;7.770;2024-01-30T03:00:42;16.95;;;10.38;;
45039;SDS011;30778;53.574;7.770;2024-01-30T03:03:07;23.20;;;11.63;;
45039;SDS011;30778;53.574;7.770;2024-01-30T03:05:33;17.65;;;10.77;;
45039;SDS011;30778;53.574;7.770;2024-01-30T03:07:58;17.88;;;11.45;;
45039;SDS011;30778;53.574;7.770;2024-01-30T03:10:26;18.83;;;10.73;;
45039;SDS011;30778;53.574;7.770;2024-01-30T03:12:51;17.90;;;9.80;;
45039;SDS011;30778;53.574;7.770;2024-01-30T03:15:17;22.08;;;10.73;;
45039;SDS011;30778;53.574;7.770;2024-01-30T03:17:43;19.25;;;10.88;;
45039;SDS011;30778;53.574;7.770;2024-01-30T03:20:11;22.15;;;11.73;;
45039;SDS011;30778;53.574;7.770;2024-01-30T03:22:39;16.38;;;10.98;;
45039;SDS011;30778;53.574;7.770;2024-01-30T03:25:07;17.65;;;10.73;;
45039;SDS011;30778;53.574;7.770;2024-01-30T03:27:34;21.40;;;11.55;;
45039;SDS011;30778;53.574;7.770;2024-01-30T03:30:00;21.73;;;11.45;;
45039;SDS011;30778;53.574;7.770;2024-01-30T03:32:28;20.83;;;9.80;;
45039;SDS011;30778;53.574;7.770;2024-01-30T03:34:56;19.52;;;12.18;;
45039;SDS011;30778;53.574;7.770;2024-01-30T03:37:23;20.98;;;11.65;;
45039;SDS011;30778;53.574;7.770;2024-01-30T03:39:51;19.13;;;11.43;;
45039;SDS011;30778;53.574;7.770;2024-01-30T03:42:17;19.02;;;10.73;;
45039;SDS011;30778;53.574;7.770;2024-01-30T03:44:47;24.83;;;11.27;;
45039;SDS011;30778;53.574;7.770;2024-01-30T03:47:13;20.48;;;11.18;;
45039;SDS011;30778;53.574;7.770;2024-01-30T03:49:38;17.45;;;10.90;;
45039;SDS011;30778;53.574;7.770;2024-01-30T03:52:07;19.33;;;11.43;;
45039;SDS011;30778;53.574;7.770;2024-01-30T03:54:32;19.52;;;11.88;;
45039;SDS011;30778;53.574;7.770;2024-01-30T03:56:58;16.67;;;10.23;;
45039;SDS011;30778;53.574;7.770;2024-01-30T03:59:24;19.80;;;11.50;;
45039;SDS011;30778;53.574;7.770;2024-01-30T04:01:50;19.65;;;11.65;;
45039;SDS011;30778;53.574;7.770;2024-01-30T04:04:18;21.50;;;11.30;;
45039;SDS011;30778;53.574;7.770;2024-01-30T04:06:44;23.38;;;11.57;;
45039;SDS011;30778;53.574;7.770;2024-01-30T04:09:10;20.20;;;12.13;;
45039;SDS011;30778;53.574;7.770;2024-01-30T04:11:39;19.73;;;12.02;;
45039;SDS011;30778;53.574;7.770;2024-01-30T04:14:07;22.30;;;12.05;;
45039;SDS011;30778;53.574;7.770;2024-01-30T04:16:34;21.95;;;12.75;;
45039;SDS011;30778;53.574;7.770;2024-01-30T04:18:59;21.13;;;11.25;;
45039;SDS011;30778;53.574;7.770;2024-01-30T04:21:25;18.40;;;10.52;;
45039;SDS011;30778;53.574;7.770;2024-01-30T04:23:50;20.58;;;10.75;;
45039;SDS011;30778;53.574;7.770;2024-01-30T04:26:17;17.15;;;10.52;;
45039;SDS011;30778;53.574;7.770;2024-01-30T04:28:44;21.63;;;12.60;;
45039;SDS011;30778;53.574;7.770;2024-01-30T04:31:13;21.77;;;11.18;;
45039;SDS011;30778;53.574;7.770;2024-01-30T04:33:38;21.00;;;12.48;;
45039;SDS011;30778;53.574;7.770;2024-01-30T04:36:09;19.15;;;10.75;;
45039;SDS011;30778;53.574;7.770;2024-01-30T04:38:37;21.30;;;11.55;;
45039;SDS011;30778;53.574;7.770;2024-01-30T04:41:04;19.02;;;10.93;;
45039;SDS011;30778;53.574;7.770;2024-01-30T04:43:33;20.00;;;10.90;;
45039;SDS011;30778;53.574;7.770;2024-01-30T04:45:58;22.65;;;12.20;;
45039;SDS011;30778;53.574;7.770;2024-01-30T04:48:26;19.77;;;11.50;;
45039;SDS011;30778;53.574;7.770;2024-01-30T04:50:52;16.20;;;9.73;;
45039;SDS011;30778;53.574;7.770;2024-01-30T04:53:20;20.23;;;11.45;;
45039;SDS011;30778;53.574;7.770;2024-01-30T04:55:48;18.17;;;11.63;;
45039;SDS011;30778;53.574;7.770;2024-01-30T04:58:13;18.80;;;10.63;;
45039;SDS011;30778;53.574;7.770;2024-01-30T05:00:39;20.27;;;11.63;;
45039;SDS011;30778;53.574;7.770;2024-01-30T05:03:04;18.40;;;10.43;;
45039;SDS011;30778;53.574;7.770;2024-01-30T05:05:29;14.27;;;10.43;;
45039;SDS011;30778;53.574;7.770;2024-01-30T05:07:55;17.05;;;10.63;;
45039;SDS011;30778;53.574;7.770;2024-01-30T05:10:21;19.40;;;10.90;;
45039;SDS011;30778;53.574;7.770;2024-01-30T05:12:46;19.60;;;11.57;;
45039;SDS011;30778;53.574;7.770;2024-01-30T05:15:14;17.35;;;11.10;;
45039;SDS011;30778;53.574;7.770;2024-01-30T05:17:39;18.38;;;11.07;;
45039;SDS011;30778;53.574;7.770;2024-01-30T05:20:10;15.85;;;10.50;;
45039;SDS011;30778;53.574;7.770;2024-01-30T05:22:36;20.35;;;12.43;;
45039;SDS011;30778;53.574;7.770;2024-01-30T05:25:08;24.30;;;11.70;;
45039;SDS011;30778;53.574;7.770;2024-01-30T05:27:34;20.67;;;11.38;;
45039;SDS011;30778;53.574;7.770;2024-01-30T05:30:01;21.45;;;11.88;;
45039;SDS011;30778;53.574;7.770;2024-01-30T05:32:27;19.55;;;12.10;;
45039;SDS011;30778;53.574;7.770;2024-01-30T05:34:52;25.48;;;12.15;;
45039;SDS011;30778;53.574;7.770;2024-01-30T05:37:18;17.65;;;11.40;;
45039;SDS011;30778;53.574;7.770;2024-01-30T05:39:46;21.67;;;12.93;;
45039;SDS011;30778;53.574;7.770;2024-01-30T05:42:14;23.80;;;13.07;;
45039;SDS011;30778;53.574;7.770;2024-01-30T05:44:42;18.90;;;10.93;;
45039;SDS011;30778;53.574;7.770;2024-01-30T05:47:10;17.27;;;11.00;;
45039;SDS011;30778;53.574;7.770;2024-01-30T05:49:41;20.95;;;11.75;;
45039;SDS011;30778;53.574;7.770;2024-01-30T05:52:09;23.38;;;11.98;;
45039;SDS011;30778;53.574;7.770;2024-01-30T05:54:35;24.17;;;11.27;;
45039;SDS011;30778;53.574;7.770;2024-01-30T05:57:00;18.63;;;10.93;;
45039;SDS011;30778;53.574;7.770;2024-01-30T05:59:26;19.38;;;10.65;;
45039;SDS011;30778;53.574;7.770;2024-01-30T06:01:51;22.50;;;13.02;;
45039;SDS011;30778;53.574;7.770;2024-01-30T06:04:19;12.88;;;9.57;;
45039;SDS011;30778;53.574;7.770;2024-01-30T06:06:44;19.80;;;10.75;;
45039;SDS011;30778;53.574;7.770;2024-01-30T06:09:12;19.35;;;10.63;;
45039;SDS011;30778;53.574;7.770;2024-01-30T06:11:38;20.23;;;11.57;;
45039;SDS011;30778;53.574;7.770;2024-01-30T06:14:03;23.40;;;11.15;;
45039;SDS011;30778;53.574;7.770;2024-01-30T06:16:31;15.45;;;10.00;;
45039;SDS011;30778;53.574;7.770;2024-01-30T06:18:57;17.08;;;10.73;;
45039;SDS011;30778;53.574;7.770;2024-01-30T06:21:23;19.23;;;12.15;;
45039;SDS011;30778;53.574;7.770;2024-01-30T06:23:49;16.75;;;10.23;;
45039;SDS011;30778;53.574;7.770;2024-01-30T06:26:17;17.63;;;10.70;;
45039;SDS011;30778;53.574;7.770;2024-01-30T06:28:42;18.67;;;11.50;;
45039;SDS011;30778;53.574;7.770;2024-01-30T06:31:10;19.75;;;11.77;;
45039;SDS011;30778;53.574;7.770;2024-01-30T06:33:37;21.55;;;11.93;;
45039;SDS011;30778;53.574;7.770;2024-01-30T06:36:03;20.95;;;11.00;;
45039;SDS011;30778;53.574;7.770;2024-01-30T06:38:31;19.30;;;11.90;;
45039;SDS011;30778;53.574;7.770;2024-01-30T06:41:02;16.02;;;9.88;;
45039;SDS011;30778;53.574;7.770;2024-01-30T06:43:30;19.95;;;12.13;;
45039;SDS011;30778;53.574;7.770;2024-01-30T06:45:55;14.65;;;9.80;;
45039;SDS011;30778;53.574;7.770;2024-01-30T06:48:21;15.77;;;10.13;;
45039;SDS011;30778;53.574;7.770;2024-01-30T06:50:49;16.30;;;10.20;;
45039;SDS011;30778;53.574;7.770;2024-01-30T06:53:21;20.40;;;10.43;;
45039;SDS011;30778;53.574;7.770;2024-01-30T06:55:49;18.65;;;10.43;;
45039;SDS011;30778;53.574;7.770;2024-01-30T06:58:20;16.45;;;10.80;;
45039;SDS011;30778;53.574;7.770;2024-01-30T07:00:48;25.33;;;11.07;;
45039;SDS011;30778;53.574;7.770;2024-01-30T07:03:16;18.48;;;11.23;;
45039;SDS011;30778;53.574;7.770;2024-01-30T07:05:44;18.80;;;11.65;;
45039;SDS011;30778;53.574;7.770;2024-01-30T07:08:10;19.15;;;10.30;;
45039;SDS011;30778;53.574;7.770;2024-01-30T07:10:35;19.42;;;10.05;;
45039;SDS011;30778;53.574;7.770;2024-01-30T07:13:01;17.17;;;10.95;;
45039;SDS011;30778;53.574;7.770;2024-01-30T07:15:31;19.45;;;11.82;;
45039;SDS011;30778;53.574;7.770;2024-01-30T07:17:57;17.30;;;11.07;;
45039;SDS011;30778;53.574;7.770;2024-01-30T07:20:22;19.80;;;11.02;;
45039;SDS011;30778;53.574;7.770;2024-01-30T07:22:48;19.17;;;11.38;;
45039;SDS011;30778;53.574;7.770;2024-01-30T07:25:14;15.63;;;9.95;;
45039;SDS011;30778;53.574;7.770;2024-01-30T07:27:44;25.92;;;12.10;;
45039;SDS011;30778;53.574;7.770;2024-01-30T07:30:10;20.08;;;10.27;;
45039;SDS011;30778;53.574;7.770;2024-01-30T07:32:35;27.20;;;12.20;;
45039;SDS011;30778;53.574;7.770;2024-01-30T07:35:01;23.70;;;10.43;;
45039;SDS011;30778;53.574;7.770;2024-01-30T07:37:29;19.00;;;9.75;;
45039;SDS011;30778;53.574;7.770;2024-01-30T07:40:01;19.55;;;9.68;;
45039;SDS011;30778;53.574;7.770;2024-01-30T07:42:34;17.55;;;10.73;;
45039;SDS011;30778;53.574;7.770;2024-01-30T07:45:00;16.55;;;9.65;;
45039;SDS011;30778;53.574;7.770;2024-01-30T07:47:31;14.73;;;9.68;;
45039;SDS011;30778;53.574;7.770;2024-01-30T07:49:56;16.13;;;9.93;;
45039;SDS011;30778;53.574;7.770;2024-01-30T07:52:22;17.70;;;9.48;;
45039;SDS011;30778;53.574;7.770;2024-01-30T07:54:50;15.30;;;8.13;;
45039;SDS011;30778;53.574;7.770;2024-01-30T07:57:21;16.08;;;8.63;;
45039;SDS011;30778;53.574;7.770;2024-01-30T07:59:47;17.85;;;10.00;;
45039;SDS011;30778;53.574;7.770;2024-01-30T08:02:15;22.30;;;10.07;;
45039;SDS011;30778;53.574;7.770;2024-01-30T08:04:40;18.63;;;9.63;;
45039;SDS011;30778;53.574;7.770;2024-01-30T08:07:06;19.40;;;8.45;;
45039;SDS011;30778;53.574;7.770;2024-01-30T08:09:32;13.52;;;9.45;;
45039;SDS011;30778;53.574;7.770;2024-01-30T08:11:57;19.15;;;10.20;;
45039;SDS011;30778;53.574;7.770;2024-01-30T08:14:23;17.95;;;8.90;;
45039;SDS011;30778;53.574;7.770;2024-01-30T08:16:53;16.05;;;9.80;;
45039;SDS011;30778;53.574;7.770;2024-01-30T08:19:20;19.15;;;9.75;;
45039;SDS011;30778;53.574;7.770;2024-01-30T08:21:46;22.67;;;10.35;;
45039;SDS011;30778;53.574;7.770;2024-01-30T08:24:21;22.30;;;11.52;;
45039;SDS011;30778;53.574;7.770;2024-01-30T08:26:47;15.43;;;9.82;;
45039;SDS011;30778;53.574;7.770;2024-01-30T08:29:14;15.55;;;9.15;;
45039;SDS011;30778;53.574;7.770;2024-01-30T08:31:40;16.23;;;8.75;;
45039;SDS011;30778;53.574;7.770;2024-01-30T08:34:08;15.68;;;9.68;;
45039;SDS011;30778;53.574;7.770;2024-01-30T08:36:33;17.23;;;9.82;;
45039;SDS011;30778;53.574;7.770;2024-01-30T08:38:59;16.52;;;9.23;;
45039;SDS011;30778;53.574;7.770;2024-01-30T08:41:24;18.75;;;9.45;;
45039;SDS011;30778;53.574;7.770;2024-01-30T08:43:50;20.63;;;10.20;;
45039;SDS011;30778;53.574;7.770;2024-01-30T08:46:18;14.15;;;7.70;;
45039;SDS011;30778;53.574;7.770;2024-01-30T08:48:44;21.17;;;9.45;;
45039;SDS011;30778;53.574;7.770;2024-01-30T08:51:10;13.82;;;9.88;;
45039;SDS011;30778;53.574;7.770;2024-01-30T08:53:40;17.98;;;9.15;;
45039;SDS011;30778;53.574;7.770;2024-01-30T08:56:08;14.63;;;8.60;;
45039;SDS011;30778;53.574;7.770;2024-01-30T08:58:36;19.02;;;9.30;;
45039;SDS011;30778;53.574;7.770;2024-01-30T09:01:01;18.73;;;10.32;;
45039;SDS011;30778;53.574;7.770;2024-01-30T09:03:28;21.83;;;9.80;;
45039;SDS011;30778;53.574;7.770;2024-01-30T09:05:56;13.25;;;8.82;;
45039;SDS011;30778;53.574;7.770;2024-01-30T09:08:22;14.55;;;9.20;;
45039;SDS011;30778;53.574;7.770;2024-01-30T09:10:55;20.95;;;9.82;;
45039;SDS011;30778;53.574;7.770;2024-01-30T09:13:21;15.23;;;9.85;;
45039;SDS011;30778;53.574;7.770;2024-01-30T09:15:56;13.70;;;8.55;;
45039;SDS011;30778;53.574;7.770;2024-01-30T09:18:22;17.60;;;9.70;;
45039;SDS011;30778;53.574;7.770;2024-01-30T09:20:54;14.43;;;9.63;;
45039;SDS011;30778;53.574;7.770;2024-01-30T09:23:20;18.75;;;9.05;;
45039;SDS011;30778;53.574;7.770;2024-01-30T09:25:49;17.00;;;9.48;;
45039;SDS011;30778;53.574;7.770;2024-01-30T09:28:17;13.98;;;9.13;;
45039;SDS011;30778;53.574;7.770;2024-01-30T09:30:45;19.20;;;8.73;;
45039;SDS011;30778;53.574;7.770;2024-01-30T09:33:16;16.08;;;8.48;;
45039;SDS011;30778;53.574;7.770;2024-01-30T09:35:41;16.65;;;9.38;;
45039;SDS011;30778;53.574;7.770;2024-01-30T09:38:07;18.35;;;10.13;;
45039;SDS011;30778;53.574;7.770;2024-01-30T09:40:46;19.15;;;9.07;;
45039;SDS011;30778;53.574;7.770;2024-01-30T09:43:21;18.42;;;8.85;;
45039;SDS011;30778;53.574;7.770;2024-01-30T09:45:59;14.52;;;9.18;;
45039;SDS011;30778;53.574;7.770;2024-01-30T09:48:27;16.58;;;8.55;;
45039;SDS011;30778;53.574;7.770;2024-01-30T09:50:57;14.10;;;8.00;;
45039;SDS011;30778;53.574;7.770;2024-01-30T09:53:25;14.85;;;10.45;;
45039;SDS011;30778;53.574;7.770;2024-01-30T09:55:54;22.20;;;9.10;;
45039;SDS011;30778;53.574;7.770;2024-01-30T09:58:19;14.20;;;8.75;;
45039;SDS011;30778;53.574;7.770;2024-01-30T10:00:45;17.98;;;9.23;;
45039;SDS011;30778;53.574;7.770;2024-01-30T10:03:15;15.30;;;8.70;;
45039;SDS011;30778;53.574;7.770;2024-01-30T10:05:43;15.85;;;8.75;;
45039;SDS011;30778;53.574;7.770;2024-01-30T10:08:16;17.10;;;8.13;;
45039;SDS011;30778;53.574;7.770;2024-01-30T10:10:47;19.00;;;9.15;;
45039;SDS011;30778;53.574;7.770;2024-01-30T10:13:17;14.65;;;8.25;;
45039;SDS011;30778;53.574;7.770;2024-01-30T10:15:44;12.45;;;7.88;;
45039;SDS011;30778;53.574;7.770;2024-01-30T10:18:18;13.85;;;8.25;;
45039;SDS011;30778;53.574;7.770;2024-01-30T10:20:43;14.60;;;8.73;;
45039;SDS011;30778;53.574;7.770;2024-01-30T10:23:09;15.93;;;7.35;;
45039;SDS011;30778;53.574;7.770;2024-01-30T10:25:35;12.25;;;7.28;;
45039;SDS011;30778;53.574;7.770;2024-01-30T10:28:05;20.15;;;8.50;;
45039;SDS011;30778;53.574;7.770;2024-01-30T10:30:34;15.60;;;9.38;;
45039;SDS011;30778;53.574;7.770;2024-01-30T10:32:59;17.48;;;8.85;;
45039;SDS011;30778;53.574;7.770;2024-01-30T10:35:25;18.95;;;9.20;;
45039;SDS011;30778;53.574;7.770;2024-01-30T10:37:50;13.88;;;8.15;;
45039;SDS011;30778;53.574;7.770;2024-01-30T10:40:17;12.95;;;8.20;;
45039;SDS011;30778;53.574;7.770;2024-01-30T10:42:50;17.88;;;8.63;;
45039;SDS011;30778;53.574;7.770;2024-01-30T10:45:20;16.35;;;7.72;;
45039;SDS011;30778;53.574;7.770;2024-01-30T10:47:52;14.52;;;7.38;;
45039;SDS011;30778;53.574;7.770;2024-01-30T10:50:24;8.65;;;6.90;;
45039;SDS011;30778;53.574;7.770;2024-01-30T10:52:50;13.25;;;7.78;;
45039;SDS011;30778;53.574;7.770;2024-01-30T10:55:25;14.50;;;8.32;;
45039;SDS011;30778;53.574;7.770;2024-01-30T10:57:53;18.60;;;7.30;;
45039;SDS011;30778;53.574;7.770;2024-01-30T11:00:19;16.35;;;8.65;;
45039;SDS011;30778;53.574;7.770;2024-01-30T11:02:49;11.98;;;6.55;;
45039;SDS011;30778;53.574;7.770;2024-01-30T11:05:22;11.60;;;7.40;;
45039;SDS011;30778;53.574;7.770;2024-01-30T11:07:51;13.95;;;7.25;;
45039;SDS011;30778;53.574;7.770;2024-01-30T11:10:19;9.73;;;6.30;;
45039;SDS011;30778;53.574;7.770;2024-01-30T11:12:54;15.60;;;7.78;;
45039;SDS011;30778;53.574;7.770;2024-01-30T11:15:20;13.77;;;7.07;;
45039;SDS011;30778;53.574;7.770;2024-01-30T11:20:15;13.80;;;6.70;;
45039;SDS011;30778;53.574;7.770;2024-01-30T11:22:47;12.20;;;6.57;;
45039;SDS011;30778;53.574;7.770;2024-01-30T11:25:16;16.63;;;7.88;;
45039;SDS011;30778;53.574;7.770;2024-01-30T11:27:49;13.25;;;7.30;;
45039;SDS011;30778;53.574;7.770;2024-01-30T11:30:21;12.18;;;6.53;;
45039;SDS011;30778;53.574;7.770;2024-01-30T11:32:57;21.17;;;7.30;;
45039;SDS011;30778;53.574;7.770;2024-01-30T11:35:24;10.63;;;6.88;;
45039;SDS011;30778;53.574;7.770;2024-01-30T11:37:50;14.23;;;6.95;;
45039;SDS011;30778;53.574;7.770;2024-01-30T11:40:18;12.27;;;7.18;;
45039;SDS011;30778;53.574;7.770;2024-01-30T11:42:44;9.98;;;6.85;;
45039;SDS011;30778;53.574;7.770;2024-01-30T11:45:13;13.05;;;6.88;;
45039;SDS011;30778;53.574;7.770;2024-01-30T11:47:39;12.93;;;6.95;;
45039;SDS011;30778;53.574;7.770;2024-01-30T11:50:07;14.23;;;7.22;;
45039;SDS011;30778;53.574;7.770;2024-01-30T11:52:40;20.80;;;8.63;;
45039;SDS011;30778;53.574;7.770;2024-01-30T11:55:07;16.60;;;8.20;;
45039;SDS011;30778;53.574;7.770;2024-01-30T11:57:36;17.30;;;7.13;;
45039;SDS011;30778;53.574;7.770;2024-01-30T12:00:04;11.85;;;6.70;;
45039;SDS011;30778;53.574;7.770;2024-01-30T12:02:39;16.00;;;8.32;;
45039;SDS011;30778;53.574;7.770;2024-01-30T12:05:08;11.02;;;6.82;;
45039;SDS011;30778;53.574;7.770;2024-01-30T12:07:37;14.65;;;6.00;;
45039;SDS011;30778;53.574;7.770;2024-01-30T12:10:02;10.10;;;6.25;;
45039;SDS011;30778;53.574;7.770;2024-01-30T12:12:31;14.05;;;7.72;;
45039;SDS011;30778;53.574;7.770;2024-01-30T12:14:59;15.25;;;6.68;;
45039;SDS011;30778;53.574;7.770;2024-01-30T12:17:31;10.55;;;6.75;;
45039;SDS011;30778;53.574;7.770;2024-01-30T12:25:14;15.68;;;8.10;;
45039;SDS011;30778;53.574;7.770;2024-01-30T12:27:45;18.02;;;7.38;;
45039;SDS011;30778;53.574;7.770;2024-01-30T12:30:20;15.05;;;7.90;;
45039;SDS011;30778;53.574;7.770;2024-01-30T12:32:51;15.70;;;7.38;;
45039;SDS011;30778;53.574;7.770;2024-01-30T12:35:17;15.55;;;7.18;;
45039;SDS011;30778;53.574;7.770;2024-01-30T12:37:44;14.95;;;8.43;;
45039;SDS011;30778;53.574;7.770;2024-01-30T12:40:10;16.83;;;7.18;;
45039;SDS011;30778;53.574;7.770;2024-01-30T12:42:41;13.60;;;7.40;;
45039;SDS011;30778;53.574;7.770;2024-01-30T12:45:08;15.50;;;9.40;;
45039;SDS011;30778;53.574;7.770;2024-01-30T12:47:35;14.57;;;8.30;;
45039;SDS011;30778;53.574;7.770;2024-01-30T12:50:03;10.88;;;7.20;;
45039;SDS011;30778;53.574;7.770;2024-01-30T12:52:34;11.90;;;7.05;;
45039;SDS011;30778;53.574;7.770;2024-01-30T12:55:00;16.73;;;7.20;;
45039;SDS011;30778;53.574;7.770;2024-01-30T12:57:25;12.68;;;8.25;;
45039;SDS011;30778;53.574;7.770;2024-01-30T12:59:51;11.45;;;6.78;;
45039;SDS011;30778;53.574;7.770;2024-01-30T13:02:16;14.60;;;8.20;;
45039;SDS011;30778;53.574;7.770;2024-01-30T13:04:42;15.23;;;7.78;;
45039;SDS011;30778;53.574;7.770;2024-01-30T13:07:13;12.63;;;7.70;;
45039;SDS011;30778;53.574;7.770;2024-01-30T13:09:41;9.15;;;6.22;;
45039;SDS011;30778;53.574;7.770;2024-01-30T13:12:09;13.68;;;7.47;;
45039;SDS011;30778;53.574;7.770;2024-01-30T13:14:34;12.35;;;6.90;;
45039;SDS011;30778;53.574;7.770;2024-01-30T13:17:08;12.73;;;6.75;;
45039;SDS011;30778;53.574;7.770;2024-01-30T13:19:36;14.27;;;7.35;;
45039;SDS011;30778;53.574;7.770;2024-01-30T13:22:01;17.60;;;6.68;;
45039;SDS011;30778;53.574;7.770;2024-01-30T13:24:27;13.07;;;5.95;;
45039;SDS011;30778;53.574;7.770;2024-01-30T13:26:54;15.93;;;6.70;;
45039;SDS011;30778;53.574;7.770;2024-01-30T13:29:22;15.52;;;6.38;;
45039;SDS011;30778;53.574;7.770;2024-01-30T13:31:48;7.80;;;4.88;;
45039;SDS011;30778;53.574;7.770;2024-01-30T13:34:16;7.60;;;5.10;;
45039;SDS011;30778;53.574;7.770;2024-01-30T13:36:45;10.45;;;4.63;;
45039;SDS011;30778;53.574;7.770;2024-01-30T13:39:11;9.02;;;4.30;;
45039;SDS011;30778;53.574;7.770;2024-01-30T13:41:37;19.13;;;5.00;;
45039;SDS011;30778;53.574;7.770;2024-01-30T13:44:09;9.88;;;4.13;;
45039;SDS011;30778;53.574;7.770;2024-01-30T13:46:37;13.85;;;4.68;;
45039;SDS011;30778;53.574;7.770;2024-01-30T13:49:05;10.02;;;4.82;;
45039;SDS011;30778;53.574;7.770;2024-01-30T13:51:33;7.03;;;4.65;;
45039;SDS011;30778;53.574;7.770;2024-01-30T13:54:04;10.30;;;4.20;;
45039;SDS011;30778;53.574;7.770;2024-01-30T13:56:35;9.15;;;4.25;;
45039;SDS011;30778;53.574;7.770;2024-01-30T13:59:03;10.45;;;2.70;;
45039;SDS011;30778;53.574;7.770;2024-01-30T14:01:31;5.63;;;2.20;;
45039;SDS011;30778;53.574;7.770;2024-01-30T14:03:59;8.50;;;2.20;;
45039;SDS011;30778;53.574;7.770;2024-01-30T14:06:32;7.60;;;2.53;;
45039;SDS011;30778;53.574;7.770;2024-01-30T14:08:57;2.65;;;1.08;;
45039;SDS011;30778;53.574;7.770;2024-01-30T14:11:32;3.25;;;1.35;;
45039;SDS011;30778;53.574;7.770;2024-01-30T14:14:01;4.10;;;1.23;;
45039;SDS011;30778;53.574;7.770;2024-01-30T14:16:26;5.60;;;1.42;;
45039;SDS011;30778;53.574;7.770;2024-01-30T14:18:56;4.13;;;0.95;;
45039;SDS011;30778;53.574;7.770;2024-01-30T14:21:24;4.18;;;1.05;;
45039;SDS011;30778;53.574;7.770;2024-01-30T14:23:50;4.65;;;1.13;;
45039;SDS011;30778;53.574;7.770;2024-01-30T14:26:15;5.30;;;0.93;;
45039;SDS011;30778;53.574;7.770;2024-01-30T14:28:45;3.08;;;0.77;;
45039;SDS011;30778;53.574;7.770;2024-01-30T14:31:11;3.35;;;0.75;;
45039;SDS011;30778;53.574;7.770;2024-01-30T14:33:39;2.22;;;0.52;;
45039;SDS011;30778;53.574;7.770;2024-01-30T14:36:07;3.35;;;0.40;;
45039;SDS011;30778;53.574;7.770;2024-01-30T14:38:35;2.08;;;0.30;;
45039;SDS011;30778;53.574;7.770;2024-01-30T14:41:03;2.83;;;0.38;;